Aeroporto :







RITROVATECI SU...

 
LOGIN :

Iscrizione | Disclaimer

   EN    FR    IT 

 









Sommario :    VFR   VFR Marginale   IFR   IFR Intensivo   IFR Molto Intensivo
Visibilità : 
Base nubi : 
>= 8 km
>= 3000ft
5 / 8 km
1000 / 3000 ft
1500m / 5 km
500 / 1000 ft
800 / 1500m
200 / 500 ft
< 800m
< 200 ft
Simboli :   Temporali  Nebbia  Neve Forte  Precipitazioni Forti  Vento > 20 kt






- Altitudine del aeroporto : 1040 ft


KAFN - Jaffrey Silver Ranch

ULTIMO METAR :
  • 220652Z AUTO 18003KT 9SM FEW095 01/M01 A2986 RMK AO2 SLP124 T00061006

METARs OBSOLETI :
  • 220552Z AUTO 00000KT 5SM BR FEW060 BKN100 BKN120 01/00 A2988 RMK AO2 RAE14UPB14E16 SLP131 P0000 60004 T00110000 10022 21011 58028
  • 220452Z AUTO 15004KT 7SM -RA OVC060 01/M01 A2991 RMK AO2 RAB29 PRESFR SLP141 P0004 T00111006 400721011

TAF N/A



MetMap, La meteo Aeronautica in un colpo d'occhio ! - Copyright ORBIFLY Dicembre 2007 - Disclaimer

ORBIFLY MET'MAP TEAM :

Programmazione e sviluppo : Alexandra Zaïnal
Concezione e sviluppo : Baudouin d'Aumeries
Co-Programmazione e sviluppo : Marc-Olivier Méhu
Supporto tecnico e logistico : Manuel Goepfert
Aiuto per la traduzione : Arnaldo La Scala

Contatto : metmap@orbifly.com




FONTI E CREDITI :

   NOAA